createdAt,value
2018-10-06T00:00:35.082Z,100121.18
2018-10-06T00:03:04.318Z,100126.90
2018-10-06T00:05:33.622Z,100131.19
2018-10-06T00:08:02.902Z,100126.42
2018-10-06T00:10:32.164Z,100127.56
2018-10-06T00:13:01.369Z,100132.16
2018-10-06T00:15:31.152Z,100128.08
2018-10-06T00:18:00.373Z,100127.25
2018-10-06T00:20:29.608Z,100129.05
2018-10-06T00:22:58.791Z,100136.47
2018-10-06T00:25:28.224Z,100127.08
2018-10-06T00:27:57.431Z,100124.29
2018-10-06T00:30:26.704Z,100119.75
2018-10-06T00:32:55.941Z,100122.32
2018-10-06T00:35:25.184Z,100122.14
2018-10-06T00:37:54.397Z,100121.20
2018-10-06T00:40:23.651Z,100119.84
2018-10-06T00:42:52.872Z,100122.95
2018-10-06T00:45:22.119Z,100116.13
2018-10-06T00:47:51.309Z,100105.85
2018-10-06T00:50:20.571Z,100110.39
2018-10-06T00:52:49.827Z,100097.38
2018-10-06T00:55:19.236Z,100096.55
2018-10-06T00:57:48.466Z,100094.23
2018-10-06T01:00:18.379Z,100098.09
2018-10-06T01:02:47.612Z,100098.28
2018-10-06T01:05:17.087Z,100095.41
2018-10-06T01:07:46.311Z,100092.81
2018-10-06T01:10:17.156Z,100084.87
2018-10-06T01:12:46.340Z,100092.89
2018-10-06T01:15:16.939Z,100084.87
2018-10-06T01:17:46.202Z,100083.17
2018-10-06T01:20:16.587Z,100083.02
2018-10-06T01:22:45.802Z,100075.78
2018-10-06T01:25:17.004Z,100077.83
2018-10-06T01:27:46.221Z,100084.70
2018-10-06T01:30:17.276Z,100074.27
2018-10-06T01:32:46.558Z,100065.70
2018-10-06T01:35:17.021Z,100061.77
2018-10-06T01:37:46.243Z,100063.05
2018-10-06T01:40:17.046Z,100064.38
2018-10-06T01:42:46.267Z,100062.02
2018-10-06T01:45:16.078Z,100060.76
2018-10-06T01:47:45.324Z,100066.12
2018-10-06T01:50:16.520Z,100060.45
2018-10-06T01:52:45.760Z,100058.95
2018-10-06T01:55:15.724Z,100055.02
2018-10-06T01:57:45.011Z,100054.29
2018-10-06T02:00:14.601Z,100055.12
2018-10-06T02:02:43.780Z,100056.42
2018-10-06T02:05:15.930Z,100053.91
2018-10-06T02:07:45.177Z,100043.84
2018-10-06T02:10:15.450Z,100049.64
2018-10-06T02:12:44.680Z,100054.93
2018-10-06T02:15:15.329Z,100050.71
2018-10-06T02:17:44.525Z,100054.60
2018-10-06T02:20:13.871Z,100050.39
2018-10-06T02:22:43.050Z,100042.00
2018-10-06T02:25:12.806Z,100034.19
2018-10-06T02:27:42.001Z,100035.98
2018-10-06T02:30:11.339Z,100031.80
2018-10-06T02:32:40.461Z,100027.70
2018-10-06T02:35:09.663Z,100026.87
2018-10-06T02:37:38.866Z,100024.95
2018-10-06T02:40:08.106Z,100024.84
2018-10-06T02:42:37.363Z,100028.42
2018-10-06T02:45:07.380Z,100037.48
2018-10-06T02:47:36.579Z,100031.54
2018-10-06T02:50:05.810Z,100027.28
2018-10-06T02:52:35.005Z,100023.06
2018-10-06T02:55:04.221Z,100030.52
2018-10-06T02:57:33.403Z,100025.98
2018-10-06T03:00:02.615Z,100027.33
2018-10-06T03:02:31.815Z,100027.28
2018-10-06T03:05:01.005Z,100023.81
2018-10-06T03:07:30.251Z,100024.60
2018-10-06T03:09:59.455Z,100018.02
2018-10-06T03:12:28.678Z,100016.69
2018-10-06T03:14:57.887Z,100011.53
2018-10-06T03:17:27.149Z,100007.83
2018-10-06T03:19:56.371Z,100013.30
2018-10-06T03:22:25.594Z,100009.72
2018-10-06T03:24:54.770Z,100010.50
2018-10-06T03:27:23.965Z,100009.56
2018-10-06T03:29:53.183Z,100005.78
2018-10-06T03:32:22.359Z,100004.52
2018-10-06T03:34:51.607Z,100005.78
2018-10-06T03:37:20.863Z,100006.41
2018-10-06T03:39:50.070Z,100006.80
2018-10-06T03:42:19.252Z,100004.95
2018-10-06T03:44:48.460Z,100005.45
2018-10-06T03:47:17.860Z,100001.31
2018-10-06T03:49:47.059Z,99990.66
2018-10-06T03:52:16.580Z,99995.16
2018-10-06T03:54:45.797Z,99998.16
2018-10-06T03:57:15.580Z,99997.97
2018-10-06T03:59:44.752Z,99996.31
2018-10-06T04:02:14.588Z,99990.45
2018-10-06T04:04:43.772Z,99994.80
2018-10-06T04:07:13.631Z,99993.44
2018-10-06T04:09:42.826Z,99994.28
2018-10-06T04:12:11.995Z,99996.68
2018-10-06T04:14:41.203Z,99997.26
2018-10-06T04:17:10.674Z,99991.02
2018-10-06T04:19:39.844Z,99987.93
2018-10-06T04:22:09.064Z,99988.91
2018-10-06T04:24:38.222Z,99986.08
2018-10-06T04:27:07.437Z,99977.62
2018-10-06T04:29:36.607Z,99983.98
2018-10-06T04:32:05.815Z,99976.34
2018-10-06T04:34:34.962Z,99973.53
2018-10-06T04:37:04.176Z,99976.28
2018-10-06T04:39:33.375Z,99976.66
2018-10-06T04:42:02.580Z,99977.30
2018-10-06T04:44:31.739Z,99971.03
2018-10-06T04:47:00.976Z,99968.03
2018-10-06T04:49:30.176Z,99969.48
2018-10-06T04:51:59.378Z,99968.39
2018-10-06T04:54:28.534Z,99962.16
2018-10-06T04:56:57.716Z,99968.36
2018-10-06T04:59:26.870Z,99971.64
2018-10-06T05:01:56.081Z,99965.72
2018-10-06T05:04:25.287Z,99963.87
2018-10-06T05:06:54.517Z,99974.44
2018-10-06T05:09:23.884Z,99976.31
2018-10-06T05:11:53.121Z,99972.08
2018-10-06T05:14:22.272Z,99974.30
2018-10-06T05:16:52.353Z,99982.14
2018-10-06T05:19:21.556Z,99981.95
2018-10-06T05:21:50.740Z,99989.23
2018-10-06T05:24:19.908Z,99991.09
2018-10-06T05:26:49.134Z,99986.63
2018-10-06T05:29:18.384Z,99994.80
2018-10-06T05:31:47.663Z,99984.30
2018-10-06T05:34:16.906Z,99992.52
2018-10-06T05:36:46.093Z,99998.81
2018-10-06T05:39:15.259Z,99998.55
2018-10-06T05:41:44.487Z,99997.22
2018-10-06T05:44:13.653Z,99993.95
2018-10-06T05:46:42.931Z,99997.32
2018-10-06T05:49:12.252Z,100000.25
2018-10-06T05:51:41.440Z,99993.19
2018-10-06T05:54:10.633Z,99993.80
2018-10-06T05:56:39.830Z,100000.29
2018-10-06T05:59:09.077Z,99997.67
2018-10-06T06:01:39.062Z,100000.50
2018-10-06T06:04:09.806Z,99991.34
2018-10-06T06:06:39.030Z,99989.47
2018-10-06T06:09:08.702Z,99989.40
2018-10-06T06:11:37.940Z,99989.29
2018-10-06T06:14:07.250Z,99987.02
2018-10-06T06:16:36.519Z,99991.45
2018-10-06T06:19:05.714Z,99989.66
2018-10-06T06:21:34.950Z,99981.38
2018-10-06T06:24:04.300Z,99986.74
2018-10-06T06:26:33.510Z,99982.28
2018-10-06T06:29:02.712Z,99974.98
2018-10-06T06:31:31.967Z,99980.61
2018-10-06T06:34:01.247Z,99971.50
2018-10-06T06:36:30.659Z,99970.55
2018-10-06T06:38:59.855Z,99975.23
2018-10-06T06:41:29.107Z,99968.00
2018-10-06T06:43:58.351Z,99967.34
2018-10-06T06:46:27.541Z,99973.27
2018-10-06T06:48:56.731Z,99963.91
2018-10-06T06:51:25.948Z,99974.60
2018-10-06T06:53:55.138Z,99968.77
2018-10-06T06:56:24.691Z,99968.69
2018-10-06T06:58:55.124Z,99968.34
2018-10-06T07:01:24.471Z,99976.09
2018-10-06T07:03:53.608Z,99961.95
2018-10-06T07:06:22.823Z,99955.14
2018-10-06T07:08:52.024Z,99956.61
2018-10-06T07:11:21.415Z,99948.66
2018-10-06T07:13:50.644Z,99949.34
2018-10-06T07:16:19.863Z,99938.98
2018-10-06T07:18:49.054Z,99943.70
2018-10-06T07:21:18.340Z,99941.50
2018-10-06T07:23:47.567Z,99941.14
2018-10-06T07:26:17.035Z,99935.95
2018-10-06T07:28:46.191Z,99942.57
2018-10-06T07:31:15.437Z,99940.92
2018-10-06T07:33:44.600Z,99938.23
2018-10-06T07:36:14.169Z,99942.30
2018-10-06T07:38:43.359Z,99940.78
2018-10-06T07:41:12.565Z,99940.01
2018-10-06T07:43:41.738Z,99945.53
2018-10-06T07:46:10.951Z,99944.62
2018-10-06T07:48:40.143Z,99945.73
2018-10-06T07:51:39.234Z,99944.41
2018-10-06T07:54:08.860Z,99945.03
2018-10-06T07:56:38.110Z,99938.69
2018-10-06T07:59:08.206Z,99947.70
2018-10-06T08:01:38.169Z,99943.18
2018-10-06T08:04:07.746Z,99944.62
2018-10-06T08:06:36.956Z,99952.09
2018-10-06T08:09:07.295Z,99954.03
2018-10-06T08:11:36.608Z,99950.72
2018-10-06T08:14:06.138Z,99951.28
2018-10-06T08:16:36.075Z,99948.16
2018-10-06T08:19:05.287Z,99948.59
2018-10-06T08:21:34.506Z,99954.22
2018-10-06T08:24:03.779Z,99940.84
2018-10-06T08:26:33.031Z,99937.41
2018-10-06T08:29:02.233Z,99939.56
2018-10-06T08:31:31.457Z,99931.31
2018-10-06T08:34:00.681Z,99933.77
2018-10-06T08:36:30.297Z,99935.42
2018-10-06T08:38:59.508Z,99923.66
2018-10-06T08:41:29.106Z,99922.72
2018-10-06T08:43:59.163Z,99917.22
2018-10-06T08:46:28.471Z,99913.19
2018-10-06T08:48:57.672Z,99910.42
2018-10-06T08:51:26.927Z,99906.23
2018-10-06T08:53:56.162Z,99907.55
2018-10-06T08:56:25.552Z,99912.20
2018-10-06T08:58:54.844Z,99910.36
2018-10-06T09:01:24.711Z,99903.90
2018-10-06T09:03:54.182Z,99897.73
2018-10-06T09:06:23.383Z,99894.87
2018-10-06T09:08:52.586Z,99900.67
2018-10-06T09:11:21.794Z,99891.78
2018-10-06T09:13:51.065Z,99892.17
2018-10-06T09:16:20.407Z,99898.22
2018-10-06T09:18:49.583Z,99886.56
2018-10-06T09:21:18.886Z,99877.46
2018-10-06T09:23:48.112Z,99874.32
2018-10-06T09:26:17.412Z,99866.94
2018-10-06T09:28:46.641Z,99864.70
2018-10-06T09:31:15.820Z,99855.73
2018-10-06T09:33:45.217Z,99857.20
2018-10-06T09:36:14.571Z,99853.38
2018-10-06T09:38:43.817Z,99841.17
2018-10-06T09:41:13.102Z,99834.59
2018-10-06T09:43:42.649Z,99827.88
2018-10-06T09:46:12.300Z,99824.20
2018-10-06T09:48:41.645Z,99827.72
2018-10-06T09:51:11.000Z,99827.36
2018-10-06T09:53:40.271Z,99828.16
2018-10-06T09:56:10.004Z,99820.41
2018-10-06T09:58:40.290Z,99818.13
2018-10-06T10:01:19.350Z,99815.20
2018-10-06T10:03:54.865Z,99815.41
2018-10-06T10:06:24.700Z,99820.73
2018-10-06T10:08:54.825Z,99811.34
2018-10-06T10:11:25.309Z,99802.25
2018-10-06T10:13:55.526Z,99799.08
2018-10-06T10:16:26.073Z,99801.55
2018-10-06T10:18:56.623Z,99795.41
2018-10-06T10:21:28.083Z,99789.93
2018-10-06T10:23:58.910Z,99784.81
2018-10-06T10:26:29.037Z,99784.94
2018-10-06T10:29:02.619Z,99776.62
2018-10-06T10:31:33.165Z,99781.05
2018-10-06T10:34:03.961Z,99777.51
2018-10-06T10:36:34.718Z,99773.45
2018-10-06T10:39:06.147Z,99776.21
2018-10-06T10:41:36.600Z,99782.85
2018-10-06T10:44:07.902Z,99778.72
2018-10-06T10:46:38.394Z,99767.70
2018-10-06T10:49:09.626Z,99761.77
2018-10-06T10:51:39.914Z,99762.31
2018-10-06T10:54:09.638Z,99754.11
2018-10-06T10:56:38.822Z,99747.05
2018-10-06T10:59:08.527Z,99743.79
2018-10-06T11:01:37.766Z,99732.04
2018-10-06T11:04:07.535Z,99735.59
2018-10-06T11:06:36.772Z,99726.56
2018-10-06T11:09:07.594Z,99722.70
2018-10-06T11:11:37.048Z,99721.09
2018-10-06T11:14:06.563Z,99723.24
2018-10-06T11:16:35.725Z,99722.97
2018-10-06T11:19:06.447Z,99721.88
2018-10-06T11:21:37.204Z,99718.06
2018-10-06T11:24:06.559Z,99716.40
2018-10-06T11:26:35.842Z,99715.01
2018-10-06T11:29:05.019Z,99712.31
2018-10-06T11:31:34.277Z,99709.86
2018-10-06T11:34:03.465Z,99697.69
2018-10-06T11:36:32.659Z,99698.00
2018-10-06T11:39:01.872Z,99690.92
2018-10-06T11:41:31.096Z,99686.02
2018-10-06T11:44:00.298Z,99679.73
2018-10-06T11:46:30.284Z,99679.18
2018-10-06T11:48:59.561Z,99672.63
2018-10-06T11:51:28.767Z,99663.08
2018-10-06T11:53:57.940Z,99660.94
2018-10-06T11:56:27.347Z,99647.27
2018-10-06T11:58:56.527Z,99647.29
2018-10-06T12:01:25.737Z,99643.45
2018-10-06T12:03:54.908Z,99642.08
2018-10-06T12:06:24.226Z,99641.28
2018-10-06T12:08:53.404Z,99642.13
2018-10-06T12:11:22.631Z,99633.66
2018-10-06T12:13:51.916Z,99624.67
2018-10-06T12:16:21.138Z,99628.73
2018-10-06T12:18:50.315Z,99623.80
2018-10-06T12:21:19.552Z,99623.55
2018-10-06T12:23:48.716Z,99621.36
2018-10-06T12:26:17.976Z,99615.09
2018-10-06T12:28:47.148Z,99614.56
2018-10-06T12:31:16.384Z,99615.89
2018-10-06T12:33:45.706Z,99609.92
2018-10-06T12:36:14.892Z,99609.38
2018-10-06T12:38:44.046Z,99602.86
2018-10-06T12:41:13.246Z,99606.93
2018-10-06T12:43:42.611Z,99603.91
2018-10-06T12:46:11.841Z,99609.00
2018-10-06T12:48:41.059Z,99605.56
2018-10-06T12:51:10.648Z,99598.11
2018-10-06T12:53:39.871Z,99588.67
2018-10-06T12:56:09.618Z,99591.25
2018-10-06T12:58:38.844Z,99588.31
2018-10-06T13:01:08.561Z,99580.30
2018-10-06T13:03:37.811Z,99574.94
2018-10-06T13:06:07.293Z,99571.56
2018-10-06T13:08:36.544Z,99570.09
2018-10-06T13:11:05.781Z,99566.92
2018-10-06T13:13:34.987Z,99567.10
2018-10-06T13:16:04.206Z,99564.55
2018-10-06T13:18:33.526Z,99565.88
2018-10-06T13:21:02.723Z,99558.92
2018-10-06T13:23:31.945Z,99562.53
2018-10-06T13:26:01.150Z,99560.05
2018-10-06T13:28:30.361Z,99558.27
2018-10-06T13:30:59.544Z,99553.88
2018-10-06T13:33:28.772Z,99558.16
2018-10-06T13:35:58.236Z,99559.74
2018-10-06T13:38:27.600Z,99552.90
2018-10-06T13:40:56.823Z,99557.66
2018-10-06T13:43:26.304Z,99552.19
2018-10-06T13:45:55.520Z,99550.61
2018-10-06T13:48:24.784Z,99559.41
2018-10-06T13:50:53.972Z,99559.24
2018-10-06T13:53:23.248Z,99553.67
2018-10-06T13:55:52.536Z,99550.90
2018-10-06T13:58:21.761Z,99546.94
2018-10-06T14:00:51.149Z,99546.06
2018-10-06T14:03:20.374Z,99546.22
2018-10-06T14:05:49.616Z,99542.96
2018-10-06T14:08:18.832Z,99542.81
2018-10-06T14:10:48.003Z,99537.40
2018-10-06T14:13:17.197Z,99539.00
2018-10-06T14:15:46.415Z,99538.73
2018-10-06T14:18:15.652Z,99528.94
2018-10-06T14:20:44.850Z,99531.06
2018-10-06T14:23:14.068Z,99528.45
2018-10-06T14:25:43.300Z,99524.61
2018-10-06T14:28:13.391Z,99518.30
2018-10-06T14:30:42.633Z,99522.47
2018-10-06T14:33:11.817Z,99518.92
2018-10-06T14:35:41.015Z,99517.55
2018-10-06T14:38:10.657Z,99517.93
2018-10-06T14:40:39.906Z,99517.02
2018-10-06T14:43:09.531Z,99517.63
2018-10-06T14:45:38.771Z,99513.93
2018-10-06T14:48:08.255Z,99520.60
2018-10-06T14:50:37.448Z,99522.78
2018-10-06T14:53:06.899Z,99522.81
2018-10-06T14:55:36.060Z,99522.33
2018-10-06T14:58:05.420Z,99521.53
2018-10-06T15:00:34.648Z,99517.70
2018-10-06T15:03:03.847Z,99511.98
2018-10-06T15:05:33.052Z,99515.53
2018-10-06T15:08:02.263Z,99512.80
2018-10-06T15:10:31.472Z,99511.98
2018-10-06T15:13:00.651Z,99505.72
2018-10-06T15:15:29.865Z,99509.56
2018-10-06T15:17:59.056Z,99504.91
2018-10-06T15:20:28.282Z,99502.47
2018-10-06T15:22:57.487Z,99503.33
2018-10-06T15:25:26.676Z,99501.71
2018-10-06T15:27:55.911Z,99491.07
2018-10-06T15:30:25.195Z,99495.73
2018-10-06T15:32:54.424Z,99492.73
2018-10-06T15:35:23.647Z,99495.50
2018-10-06T15:37:52.891Z,99497.43
2018-10-06T15:40:22.101Z,99491.19
2018-10-06T15:42:51.339Z,99495.28
2018-10-06T15:45:20.548Z,99488.77
2018-10-06T15:47:49.861Z,99488.49
2018-10-06T15:50:19.019Z,99488.73
2018-10-06T15:52:48.242Z,99484.93
2018-10-06T15:55:17.495Z,99481.95
2018-10-06T15:57:46.721Z,99480.30
2018-10-06T16:00:15.953Z,99479.50
2018-10-06T16:02:45.173Z,99479.50
2018-10-06T16:05:14.380Z,99469.69
2018-10-06T16:07:43.608Z,99474.03
2018-10-06T16:10:12.863Z,99479.21
2018-10-06T16:12:42.060Z,99482.75
2018-10-06T16:15:11.553Z,99484.94
2018-10-06T16:17:40.763Z,99487.38
2018-10-06T16:20:10.810Z,99488.98
2018-10-06T16:22:40.035Z,99487.88
2018-10-06T16:25:10.113Z,99487.03
2018-10-06T16:27:39.366Z,99485.11
2018-10-06T16:30:10.003Z,99480.73
2018-10-06T16:32:39.227Z,99483.41
2018-10-06T16:35:08.598Z,99484.19
2018-10-06T16:37:37.799Z,99486.05
2018-10-06T16:40:07.906Z,99482.79
2018-10-06T16:42:37.090Z,99475.98
2018-10-06T16:45:06.356Z,99471.09
2018-10-06T16:47:35.567Z,99476.50
2018-10-06T16:50:04.832Z,99478.13
2018-10-06T16:52:34.023Z,99473.73
2018-10-06T16:55:03.220Z,99469.10
2018-10-06T16:57:32.398Z,99479.66
2018-10-06T17:00:01.763Z,99476.39
2018-10-06T17:02:30.932Z,99476.39
2018-10-06T17:05:00.113Z,99480.19
2018-10-06T17:07:29.297Z,99484.22
2018-10-06T17:09:58.486Z,99482.08
2018-10-06T17:12:27.695Z,99482.86
2018-10-06T17:14:56.909Z,99485.84
2018-10-06T17:17:26.067Z,99487.15
2018-10-06T17:19:55.266Z,99479.78
2018-10-06T17:22:24.638Z,99483.02
2018-10-06T17:24:53.814Z,99480.02
2018-10-06T17:27:23.023Z,99482.41
2018-10-06T17:29:52.144Z,99484.84
2018-10-06T17:32:21.316Z,99485.07
2018-10-06T17:34:50.499Z,99482.66
2018-10-06T17:37:19.697Z,99488.33
2018-10-06T17:39:48.897Z,99490.77
2018-10-06T17:42:18.131Z,99489.40
2018-10-06T17:44:47.383Z,99491.56
2018-10-06T17:47:16.604Z,99493.69
2018-10-06T17:49:45.872Z,99492.86
2018-10-06T17:52:15.869Z,99497.20
2018-10-06T17:54:45.037Z,99498.84
2018-10-06T17:57:15.077Z,99499.38
2018-10-06T17:59:44.220Z,99496.91
2018-10-06T18:02:13.541Z,99500.11
2018-10-06T18:04:42.758Z,99497.12
2018-10-06T18:07:12.444Z,99492.22
2018-10-06T18:09:41.583Z,99495.20
2018-10-06T18:12:10.820Z,99500.08
2018-10-06T18:14:39.992Z,99495.72
2018-10-06T18:17:09.175Z,99494.86
2018-10-06T18:19:38.605Z,99498.39
2018-10-06T18:22:07.812Z,99494.86
2018-10-06T18:24:36.993Z,99500.83
2018-10-06T18:27:06.246Z,99499.98
2018-10-06T18:29:35.458Z,99498.08
2018-10-06T18:32:04.865Z,99506.98
2018-10-06T18:34:34.065Z,99506.14
2018-10-06T18:37:03.337Z,99508.58
2018-10-06T18:39:32.451Z,99508.84
2018-10-06T18:42:01.688Z,99508.55
2018-10-06T18:44:30.878Z,99506.95
2018-10-06T18:47:00.088Z,99506.88
2018-10-06T18:49:29.230Z,99511.49
2018-10-06T18:51:58.414Z,99516.62
2018-10-06T18:54:27.566Z,99509.28
2018-10-06T18:56:56.744Z,99514.15
2018-10-06T18:59:25.895Z,99510.57
2018-10-06T19:01:55.115Z,99518.13
2018-10-06T19:04:24.762Z,99517.21
2018-10-06T19:06:53.802Z,99522.88
2018-10-06T19:09:23.091Z,99520.14
2018-10-06T19:11:52.297Z,99522.30
2018-10-06T19:14:21.695Z,99520.35
2018-10-06T19:16:50.880Z,99528.20
2018-10-06T19:19:20.041Z,99521.69
2018-10-06T19:21:49.308Z,99527.09
2018-10-06T19:24:18.441Z,99529.45
2018-10-06T19:26:47.728Z,99532.39
2018-10-06T19:29:16.933Z,99531.27
2018-10-06T19:31:46.142Z,99532.85
2018-10-06T19:34:15.676Z,99540.14
2018-10-06T19:36:44.900Z,99542.00
2018-10-06T19:39:14.785Z,99541.70
2018-10-06T19:41:44.032Z,99549.49
2018-10-06T19:44:13.201Z,99542.33
2018-10-06T19:46:42.444Z,99546.63
2018-10-06T19:49:12.260Z,99542.84
2018-10-06T19:51:41.605Z,99550.91
2018-10-06T19:54:10.668Z,99549.05
2018-10-06T19:56:39.895Z,99543.80
2018-10-06T19:59:09.048Z,99552.49
2018-10-06T20:01:38.795Z,99551.91
2018-10-06T20:04:08.089Z,99556.47
2018-10-06T20:06:37.307Z,99559.63
2018-10-06T20:09:08.419Z,99556.89
2018-10-06T20:11:38.140Z,99557.40
2018-10-06T20:14:07.639Z,99563.55
2018-10-06T20:16:36.900Z,99565.72
2018-10-06T20:19:06.153Z,99567.35
2018-10-06T20:21:35.341Z,99573.59
2018-10-06T20:24:04.522Z,99574.75
2018-10-06T20:26:33.735Z,99576.10
2018-10-06T20:29:02.914Z,99571.38
2018-10-06T20:31:32.132Z,99568.27
2018-10-06T20:34:01.316Z,99579.25
2018-10-06T20:36:30.642Z,99575.09
2018-10-06T20:38:59.843Z,99573.55
2018-10-06T20:41:29.088Z,99576.05
2018-10-06T20:43:58.256Z,99572.20
2018-10-06T20:46:27.561Z,99568.61
2018-10-06T20:48:56.739Z,99568.58
2018-10-06T20:51:25.968Z,99572.11
2018-10-06T20:53:55.176Z,99570.40
2018-10-06T20:56:24.427Z,99568.88
2018-10-06T20:58:53.665Z,99568.81
2018-10-06T21:01:22.911Z,99576.83
2018-10-06T21:03:52.123Z,99569.92
2018-10-06T21:06:21.339Z,99568.11
2018-10-06T21:08:50.540Z,99563.77
2018-10-06T21:11:19.814Z,99563.33
2018-10-06T21:13:49.046Z,99556.78
2018-10-06T21:16:18.363Z,99563.44
2018-10-06T21:18:47.569Z,99563.44
2018-10-06T21:21:16.764Z,99561.36
2018-10-06T21:23:45.969Z,99561.03
2018-10-06T21:26:15.739Z,99563.53
2018-10-06T21:28:45.034Z,99556.20
2018-10-06T21:31:14.737Z,99554.52
2018-10-06T21:33:43.963Z,99558.22
2018-10-06T21:36:13.555Z,99556.01
2018-10-06T21:38:42.850Z,99557.40
2018-10-06T21:41:12.297Z,99559.48
2018-10-06T21:43:41.516Z,99562.61
2018-10-06T21:46:10.730Z,99560.61
2018-10-06T21:48:39.927Z,99563.27
2018-10-06T21:51:09.168Z,99560.20
2018-10-06T21:53:38.389Z,99566.30
2018-10-06T21:56:07.585Z,99566.87
2018-10-06T21:58:36.787Z,99560.36
2018-10-06T22:01:12.244Z,99559.14
2018-10-06T22:03:41.874Z,99560.03
2018-10-06T22:06:11.199Z,99559.75
2018-10-06T22:08:40.873Z,99564.66
2018-10-06T22:11:10.084Z,99562.98
2018-10-06T22:13:39.269Z,99561.27
2018-10-06T22:16:09.182Z,99568.84
2018-10-06T22:18:38.571Z,99565.81
2018-10-06T22:21:07.766Z,99574.77
2018-10-06T22:23:36.990Z,99569.20
2018-10-06T22:26:06.243Z,99571.81
2018-10-06T22:28:35.408Z,99570.82
2018-10-06T22:31:04.715Z,99570.72
2018-10-06T22:33:33.992Z,99571.12
2018-10-06T22:36:03.239Z,99573.48
2018-10-06T22:38:32.412Z,99574.89
2018-10-06T22:41:01.641Z,99571.83
2018-10-06T22:43:30.942Z,99569.38
2018-10-06T22:46:00.207Z,99569.83
2018-10-06T22:48:29.512Z,99569.95
2018-10-06T22:50:58.731Z,99567.84
2018-10-06T22:53:27.939Z,99566.96
2018-10-06T22:55:57.194Z,99563.81
2018-10-06T22:58:26.403Z,99565.03
2018-10-06T23:00:55.666Z,99569.67
2018-10-06T23:03:24.892Z,99562.69
2018-10-06T23:05:54.132Z,99572.42
2018-10-06T23:08:26.141Z,99568.89
2018-10-06T23:10:55.423Z,99566.58
2018-10-06T23:13:24.646Z,99568.38
2018-10-06T23:15:53.867Z,99564.41
2018-10-06T23:18:23.095Z,99558.53
2018-10-06T23:20:52.345Z,99561.05
2018-10-06T23:23:21.539Z,99557.66
2018-10-06T23:25:50.744Z,99567.16
2018-10-06T23:28:19.934Z,99562.06
2018-10-06T23:30:49.170Z,99561.09
2018-10-06T23:33:18.360Z,99562.52
2018-10-06T23:35:48.146Z,99560.79
2018-10-06T23:38:20.486Z,99564.89
2018-10-06T23:40:49.839Z,99567.36
2018-10-06T23:43:19.029Z,99571.78
2018-10-06T23:45:48.241Z,99576.73
2018-10-06T23:48:18.797Z,99576.15
2018-10-06T23:50:48.060Z,99579.66
2018-10-06T23:53:17.411Z,99586.11
2018-10-06T23:55:47.703Z,99583.30
